Time;durP1;ratioP1;P1;durP2;ratioP2;P2;SDS_P1;SDS_P2;PMS_P1;PMS_P2;Temp;Humidity;BMP_temperature;BMP_pressure;BME280_temperature;BME280_humidity;BME280_pressure;Samples;Min_cycle;Max_cycle;Signal;HPM_P1;HPM_P2
2022/12/24 00:00:41;;;;;;;7.32;3.80;;;;;;;12.49;100.00;101232.75;2104969;28;20043;-75
2022/12/24 00:02:04;;;;;;;7.25;5.10;;;;;;;12.48;100.00;101227.44;2093716;28;20075;-75
2022/12/24 00:03:27;;;;;;;7.38;4.70;;;;;;;12.49;100.00;101234.50;2100274;28;20048;-75
2022/12/24 00:04:49;;;;;;;11.30;6.93;;;;;;;12.48;100.00;101236.28;2109322;28;20569;-75
2022/12/24 00:06:18;;;;;;;11.35;9.35;;;;;;;12.47;100.00;101233.63;2097278;28;20072;-75
2022/12/24 00:07:40;;;;;;;13.23;9.68;;;;;;;12.46;100.00;101237.13;2093701;28;20088;-75
2022/12/24 00:09:02;;;;;;;8.95;5.35;;;;;;;12.46;100.00;101234.47;2099332;28;20040;-75
2022/12/24 00:10:24;;;;;;;;;;;;;;;12.42;100.00;101232.63;2095609;28;20098;-75
2022/12/24 00:11:46;;;;;;;8.20;4.97;;;;;;;12.46;100.00;101234.47;2094951;28;19924;-75
2022/12/24 00:13:08;;;;;;;7.60;5.13;;;;;;;12.45;100.00;101238.00;2106615;28;20103;-75
2022/12/24 00:14:30;;;;;;;8.27;6.05;;;;;;;12.46;100.00;101238.03;2096704;28;20064;-75
2022/12/24 00:15:51;;;;;;;9.50;6.13;;;;;;;12.48;100.00;101243.31;2100549;28;20062;-75
2022/12/24 00:17:14;;;;;;;10.93;7.05;;;;;;;12.49;100.00;101240.69;2094569;28;20040;-75
2022/12/24 00:18:37;;;;;;;9.82;6.32;;;;;;;12.52;100.00;101237.22;2092104;28;20527;-75
2022/12/24 00:20:00;;;;;;;8.65;6.05;;;;;;;12.53;100.00;101246.94;2098719;28;20040;-75
2022/12/24 00:21:22;;;;;;;9.15;4.20;;;;;;;12.54;100.00;101243.41;2086525;28;20049;-75
2022/12/24 00:22:44;;;;;;;7.72;4.65;;;;;;;12.56;100.00;101241.69;2092256;28;20056;-75
2022/12/24 00:24:07;;;;;;;8.05;5.47;;;;;;;12.55;100.00;101240.78;2094699;28;20098;-75
2022/12/24 00:25:28;;;;;;;8.52;5.72;;;;;;;12.54;100.00;101236.34;2094635;28;20680;-75
2022/12/24 00:26:51;;;;;;;9.93;6.32;;;;;;;12.54;100.00;101244.31;2100209;28;20064;-75
2022/12/24 00:28:13;;;;;;;9.57;5.72;;;;;;;12.50;100.00;101245.13;2097088;28;20113;-75
2022/12/24 00:29:36;;;;;;;8.80;5.95;;;;;;;12.50;100.00;101244.25;2097247;28;20098;-75
2022/12/24 00:30:58;;;;;;;8.48;5.60;;;;;;;12.52;100.00;101235.47;2094741;28;20127;-75
2022/12/24 00:32:19;;;;;;;9.40;5.28;;;;;;;12.54;100.00;101239.00;2101275;28;20129;-75
2022/12/24 00:33:44;;;;;;;13.10;8.38;;;;;;;12.58;100.00;101242.59;2093469;28;20075;-75
2022/12/24 00:35:06;;;;;;;15.13;9.63;;;;;;;12.61;100.00;101242.63;2102874;28;20064;-75
2022/12/24 00:36:28;;;;;;;8.43;5.93;;;;;;;12.62;100.00;101240.03;2097212;28;20102;-75
2022/12/24 00:37:50;;;;;;;10.15;6.38;;;;;;;12.64;100.00;101246.25;2098452;28;20052;-75
2022/12/24 00:39:12;;;;;;;9.18;5.80;;;;;;;12.67;100.00;101245.38;2102842;28;20055;-75
2022/12/24 00:40:34;;;;;;;16.05;10.43;;;;;;;12.71;100.00;101242.81;2102776;28;20040;-75
2022/12/24 00:41:58;;;;;;;16.65;14.07;;;;;;;12.73;100.00;101251.66;2101943;28;20048;-75
2022/12/24 00:43:19;;;;;;;19.23;15.23;;;;;;;12.73;100.00;101240.19;2097106;28;20678;-75
2022/12/24 00:44:41;;;;;;;16.77;9.55;;;;;;;12.74;100.00;101236.66;2094203;28;20033;-75
2022/12/24 00:46:03;;;;;;;10.20;6.38;;;;;;;12.74;100.00;101237.53;2102658;28;20490;-75
2022/12/24 00:47:25;;;;;;;10.07;6.53;;;;;;;12.74;100.00;101242.84;2102984;28;20047;-75
2022/12/24 00:48:48;;;;;;;11.98;7.47;;;;;;;12.74;100.00;101242.84;2102216;28;20051;-75
2022/12/24 00:50:11;;;;;;;11.15;7.85;;;;;;;12.74;100.00;101237.53;2093909;28;20401;-75
2022/12/24 00:51:33;;;;;;;8.13;6.00;;;;;;;12.74;100.00;101237.53;2091529;28;20049;-75
2022/12/24 00:52:55;;;;;;;;;;;;;;;12.67;100.00;101232.13;2099430;28;20032;-75
2022/12/24 00:54:16;;;;;;;10.02;6.07;;;;;;;12.66;100.00;101233.91;2102176;28;19957;-75
2022/12/24 00:55:39;;;;;;;7.90;5.38;;;;;;;12.67;100.00;101240.97;2105389;28;20097;-75
2022/12/24 00:57:00;;;;;;;11.30;7.88;;;;;;;12.70;100.00;101238.38;2101412;28;20090;-75
2022/12/24 00:58:22;;;;;;;10.27;7.90;;;;;;;12.73;100.00;101237.56;2098445;28;20411;-75
2022/12/24 00:59:44;;;;;;;9.15;5.30;;;;;;;12.74;100.00;101240.19;2102505;28;20080;-75
2022/12/24 01:01:06;;;;;;;8.05;5.47;;;;;;;12.76;100.00;101238.47;2094134;28;20536;-75
2022/12/24 01:02:29;;;;;;;7.10;4.97;;;;;;;12.80;100.00;101239.38;2090746;28;20221;-75
2022/12/24 01:05:09;;;;;;;6.65;4.40;;;;;;;12.83;100.00;101239.44;2097102;28;20046;-75
2022/12/24 01:05:34;;;;;;;5.68;4.00;;;;;;;12.83;100.00;101235.91;2096667;28;20080;-75
2022/12/24 01:06:55;;;;;;;6.55;4.35;;;;;;;12.86;100.00;101235.97;2096984;28;20084;-75
2022/12/24 01:08:18;;;;;;;7.03;4.30;;;;;;;12.87;100.00;101232.41;2099112;28;20068;-75
2022/12/24 01:09:39;;;;;;;6.85;4.13;;;;;;;12.88;100.00;101239.50;2102417;28;20048;-76
2022/12/24 01:11:02;;;;;;;7.50;4.38;;;;;;;12.87;100.00;101233.31;2095125;28;20127;-75
2022/12/24 01:12:24;;;;;;;7.60;4.40;;;;;;;12.87;100.00;101235.06;2094139;28;20036;-75
2022/12/24 01:13:47;;;;;;;7.07;4.15;;;;;;;12.88;100.00;101237.75;2094338;28;20056;-75
2022/12/24 01:15:10;;;;;;;7.22;4.53;;;;;;;12.88;100.00;101226.25;2094474;28;20396;-75
2022/12/24 01:16:32;;;;;;;6.30;4.10;;;;;;;12.87;100.00;101221.81;2107605;28;20043;-75
2022/12/24 01:17:55;;;;;;;7.40;4.55;;;;;;;12.87;100.00;101225.34;2088588;28;20048;-76
2022/12/24 01:19:18;;;;;;;7.13;4.40;;;;;;;12.88;100.00;101224.50;2097470;28;20404;-75
2022/12/24 01:20:40;;;;;;;5.70;3.72;;;;;;;12.90;100.00;101224.53;2101712;28;20051;-74
2022/12/24 01:22:02;;;;;;;8.18;3.80;;;;;;;12.92;100.00;101226.34;2102402;28;20788;-75
2022/12/24 01:23:24;;;;;;;7.22;4.25;;;;;;;12.92;100.00;101223.69;2096011;28;20044;-75
2022/12/24 01:24:45;;;;;;;11.40;7.60;;;;;;;12.93;100.00;101221.94;2099316;28;20044;-75
2022/12/24 01:26:08;;;;;;;14.93;11.98;;;;;;;12.90;100.00;101219.22;2093696;28;20128;-75
2022/12/24 01:27:29;;;;;;;14.02;10.40;;;;;;;12.89;100.00;101223.63;2088458;28;20049;-75
2022/12/24 01:28:52;;;;;;;11.23;8.73;;;;;;;12.89;100.00;101225.38;2094263;28;20124;-76
2022/12/24 01:30:13;;;;;;;11.63;7.43;;;;;;;12.91;100.00;101221.00;2093943;28;20048;-76
2022/12/24 01:31:36;;;;;;;12.48;6.65;;;;;;;12.90;100.00;101212.16;2098958;28;20059;-75
2022/12/24 01:32:59;;;;;;;9.05;6.40;;;;;;;12.86;100.00;101213.00;2102431;28;20052;-75
2022/12/24 01:34:22;;;;;;;8.80;6.30;;;;;;;12.81;100.00;101212.03;2100020;28;20067;-75
2022/12/24 01:35:44;;;;;;;10.20;7.40;;;;;;;12.78;100.00;101210.25;2101279;28;20143;-75
2022/12/24 01:37:05;;;;;;;10.02;6.60;;;;;;;12.78;100.00;101210.25;2101482;28;20036;-76
2022/12/24 01:38:28;;;;;;;10.00;6.68;;;;;;;12.82;100.00;101211.16;2101185;28;20055;-75
2022/12/24 01:39:49;;;;;;;8.68;5.35;;;;;;;12.85;100.00;101212.97;2096253;28;20448;-76
2022/12/24 01:44:42;;;;;;;9.35;6.10;;;;;;;12.95;100.00;101214.88;2103288;28;20044;-76
2022/12/24 01:46:06;;;;;;;8.55;5.65;;;;;;;12.97;100.00;101218.44;2086327;28;20080;-75
2022/12/24 01:47:30;;;;;;;8.10;5.63;;;;;;;12.99;100.00;101216.72;2085984;28;20127;-76
2022/12/24 01:48:55;;;;;;;8.98;5.97;;;;;;;12.99;100.00;101208.75;2104740;28;20062;-75
2022/12/24 01:50:19;;;;;;;8.80;5.00;;;;;;;13.01;100.00;101209.63;2100329;28;20405;-75
2022/12/24 01:51:45;;;;;;;7.85;4.32;;;;;;;13.02;100.00;101203.47;2096374;28;20052;-75
2022/12/24 01:53:10;;;;;;;8.80;5.38;;;;;;;13.03;100.00;101199.97;2101252;28;20052;-75
2022/12/24 01:54:35;;;;;;;7.75;4.80;;;;;;;13.04;100.00;101207.03;2093697;28;20579;-75
2022/12/24 01:55:57;;;;;;;7.65;4.88;;;;;;;13.02;100.00;101199.06;2100986;28;20106;-76
2022/12/24 01:57:24;;;;;;;7.95;5.07;;;;;;;13.02;100.00;101201.72;2093337;28;20737;-76
2022/12/24 01:58:50;;;;;;;7.13;4.63;;;;;;;13.02;100.00;101203.47;2099256;28;20424;-76
2022/12/24 02:00:15;;;;;;;9.35;5.30;;;;;;;13.00;100.00;101202.56;2094459;28;20068;-75
2022/12/24 02:01:38;;;;;;;12.00;7.75;;;;;;;13.00;100.00;101199.91;2086186;28;20052;-76
2022/12/24 02:03:01;;;;;;;8.90;5.82;;;;;;;13.01;100.00;101204.34;2095617;28;20134;-75
2022/12/24 02:04:32;;;;;;;10.25;6.35;;;;;;;13.02;100.00;101201.72;2094042;28;20037;-75
2022/12/24 02:06:00;;;;;;;10.68;6.38;;;;;;;13.02;100.00;101193.78;2101520;28;20044;-76
2022/12/24 02:07:21;;;;;;;9.93;6.07;;;;;;;13.04;100.00;101194.69;2094882;28;20134;-75
2022/12/24 02:08:44;;;;;;;7.68;4.93;;;;;;;13.05;100.00;101196.47;2098114;28;20040;-75
2022/12/24 02:10:08;;;;;;;8.65;5.00;;;;;;;13.06;100.00;101198.22;2102116;28;20504;-76
2022/12/24 02:11:31;;;;;;;8.18;4.95;;;;;;;13.06;100.00;101200.00;2093770;28;20044;-75
2022/12/24 02:12:53;;;;;;;7.68;4.72;;;;;;;13.04;100.00;101194.69;2090276;28;20057;-76
2022/12/24 02:14:17;;;;;;;7.68;4.18;;;;;;;13.05;100.00;101198.22;2089455;28;20064;-75
2022/12/24 02:15:51;;;;;;;5.60;3.75;;;;;;;13.05;100.00;101192.94;2099452;28;20110;-75
2022/12/24 02:17:21;;;;;;;6.55;4.57;;;;;;;13.03;100.00;101192.91;2104867;28;20044;-75
2022/12/24 02:18:49;;;;;;;6.85;3.53;;;;;;;13.02;100.00;101201.72;2098096;28;20071;-75
2022/12/24 02:20:50;;;;;;;6.53;4.57;;;;;;;13.01;100.00;101199.03;2102231;28;20537;-75
2022/12/24 02:22:16;;;;;;;8.57;4.25;;;;;;;13.00;100.00;101198.16;2096406;28;20064;-75
2022/12/24 02:23:58;;;;;;;6.82;4.40;;;;;;;13.02;100.00;101190.22;2095238;28;20040;-75
2022/12/24 02:25:44;;;;;;;5.32;3.67;;;;;;;13.01;100.00;101196.38;2096376;28;20527;-76
2022/12/24 02:27:21;;;;;;;7.40;3.90;;;;;;;13.01;100.00;101199.03;2104446;28;20464;-75
2022/12/24 02:29:07;;;;;;;6.10;3.97;;;;;;;13.01;100.00;101188.44;2096318;28;20137;-75
2022/12/24 02:30:36;;;;;;;7.22;4.28;;;;;;;13.01;100.00;101199.94;2096514;28;20041;-76
2022/12/24 02:32:01;;;;;;;7.63;3.83;;;;;;;13.04;100.00;101188.50;2084780;28;20063;-75
2022/12/24 02:33:30;;;;;;;6.40;4.18;;;;;;;13.04;100.00;101193.78;2102759;28;20560;-75
2022/12/24 02:34:57;;;;;;;6.93;4.50;;;;;;;13.05;100.00;101192.94;2088557;28;20150;-76
2022/12/24 02:36:25;;;;;;;7.32;3.78;;;;;;;13.06;100.00;101190.28;2101160;28;20046;-75
2022/12/24 02:37:52;;;;;;;9.70;4.65;;;;;;;13.06;100.00;101190.28;2088255;28;20573;-75
2022/12/24 02:39:19;;;;;;;6.72;4.40;;;;;;;13.07;100.00;101192.06;2098658;28;20048;-75
2022/12/24 02:40:45;;;;;;;6.80;3.55;;;;;;;13.08;100.00;101190.28;2102619;28;20082;-75
2022/12/24 02:42:12;;;;;;;6.57;3.67;;;;;;;13.09;100.00;101197.38;2102762;28;20439;-76
2022/12/24 02:43:38;;;;;;;6.60;3.97;;;;;;;13.09;100.00;101189.44;2102528;28;20642;-75
2022/12/24 02:45:04;;;;;;;5.70;3.95;;;;;;;13.09;100.00;101194.72;2088160;28;20049;-75
2022/12/24 02:46:30;;;;;;;5.97;3.80;;;;;;;13.11;100.00;101188.59;2100291;28;20044;-75
2022/12/24 02:47:54;;;;;;;6.15;3.75;;;;;;;13.12;100.00;101186.84;2102631;28;20752;-75
2022/12/24 02:49:17;;;;;;;6.65;4.03;;;;;;;13.14;100.00;101195.69;2101445;28;20051;-75
2022/12/24 02:50:39;;;;;;;6.20;4.03;;;;;;;13.13;100.00;101194.81;2101481;28;20069;-75
2022/12/24 02:52:01;;;;;;;7.05;4.43;;;;;;;13.13;100.00;101186.84;2101427;28;20048;-74
2022/12/24 02:53:23;;;;;;;6.95;4.03;;;;;;;13.15;100.00;101187.78;2102163;28;20044;-75
2022/12/24 02:54:45;;;;;;;7.82;4.40;;;;;;;13.16;100.00;101188.66;2092552;28;20111;-75
2022/12/24 02:56:48;;;;;;;6.63;4.20;;;;;;;13.18;100.00;101184.28;2098917;28;20052;-75
2022/12/24 02:58:27;;;;;;;7.30;4.13;;;;;;;13.16;100.00;101184.25;2070647;28;20076;-75
2022/12/24 03:00:00;;;;;;;6.72;4.22;;;;;;;13.19;100.00;101182.53;2065893;28;20049;-75
2022/12/24 03:01:37;;;;;;;7.97;4.50;;;;;;;13.20;100.00;101179.88;2087956;28;20048;-75
2022/12/24 03:03:13;;;;;;;6.60;4.40;;;;;;;13.20;100.00;101186.94;2103448;28;20043;-75
2022/12/24 03:04:43;;;;;;;7.53;4.43;;;;;;;13.18;100.00;101192.25;2099611;28;20123;-75
2022/12/24 03:06:15;;;;;;;6.65;4.03;;;;;;;13.16;100.00;101183.38;2108527;28;20048;-75
2022/12/24 03:07:45;;;;;;;6.80;4.50;;;;;;;13.15;100.00;101187.78;2103513;28;20036;-75
2022/12/24 03:09:19;;;;;;;6.68;4.05;;;;;;;13.12;100.00;101192.13;2099669;28;20064;-75
2022/12/24 03:10:51;;;;;;;5.70;3.58;;;;;;;13.10;100.00;101192.09;2102366;28;20044;-75
2022/12/24 03:12:17;;;;;;;8.98;3.90;;;;;;;13.07;100.00;101186.75;2102697;28;20040;-75
2022/12/24 03:13:41;;;;;;;6.93;4.30;;;;;;;13.06;100.00;101190.28;2095750;28;20083;-75
2022/12/24 03:15:09;;;;;;;10.07;4.28;;;;;;;13.04;100.00;101194.69;2100383;28;20050;-76
2022/12/24 03:16:33;;;;;;;7.25;3.83;;;;;;;13.04;100.00;101191.16;2101439;28;20097;-75
2022/12/24 03:18:00;;;;;;;7.88;4.40;;;;;;;13.02;100.00;101188.47;2094080;28;20048;-76
2022/12/24 03:19:23;;;;;;;6.40;4.57;;;;;;;13.01;100.00;101196.38;2100349;28;20157;-75
2022/12/24 03:20:49;;;;;;;7.72;4.88;;;;;;;13.00;100.00;101199.91;2101731;28;20071;-76
2022/12/24 03:22:11;;;;;;;8.55;3.90;;;;;;;12.98;100.00;101193.72;2093765;28;20061;-75
2022/12/24 03:23:35;;;;;;;7.72;4.45;;;;;;;12.97;100.00;101195.47;2107516;28;20040;-75
2022/12/24 03:24:57;;;;;;;5.88;4.07;;;;;;;12.94;100.00;101199.84;2094901;28;20082;-76
2022/12/24 03:26:20;;;;;;;6.63;4.30;;;;;;;12.91;100.00;101200.69;2100646;28;20510;-75
2022/12/24 03:27:44;;;;;;;8.90;4.35;;;;;;;12.93;100.00;101198.06;2103620;28;20075;-74
2022/12/24 03:29:06;;;;;;;7.40;4.45;;;;;;;12.94;100.00;101195.41;2089532;28;20397;-75
2022/12/24 03:30:29;;;;;;;9.38;4.57;;;;;;;12.98;100.00;101201.66;2096145;28;20048;-75
2022/12/24 03:32:00;;;;;;;6.60;3.88;;;;;;;13.01;100.00;101202.59;2103591;28;20040;-76
2022/12/24 03:33:22;;;;;;;8.63;4.80;;;;;;;13.03;100.00;101192.00;2096267;28;20054;-76
2022/12/24 03:34:44;;;;;;;8.07;4.18;;;;;;;13.05;100.00;101192.94;2100660;28;20047;-75
2022/12/24 03:36:07;;;;;;;8.70;6.45;;;;;;;13.06;100.00;101197.38;2097870;28;20078;-75
2022/12/24 03:37:29;;;;;;;10.18;5.65;;;;;;;13.06;100.00;101198.22;2109599;28;20491;-75
2022/12/24 03:38:50;;;;;;;9.32;5.63;;;;;;;13.09;100.00;101189.44;2097444;28;20053;-75
2022/12/24 03:40:13;;;;;;;9.63;5.43;;;;;;;13.09;100.00;101187.66;2090983;28;20060;-76
2022/12/24 03:41:36;;;;;;;7.78;4.38;;;;;;;13.08;100.00;101188.53;2102363;28;20488;-75
2022/12/24 03:42:57;;;;;;;12.00;4.65;;;;;;;13.08;100.00;101183.25;2106214;28;20095;-75
2022/12/24 03:44:20;;;;;;;7.40;4.45;;;;;;;13.08;100.00;101185.88;2104726;28;20388;-76
2022/12/24 03:45:42;;;;;;;7.32;4.18;;;;;;;13.09;100.00;101190.31;2103508;28;20055;-75
2022/12/24 03:47:06;;;;;;;6.53;4.57;;;;;;;13.12;100.00;101193.06;2094625;28;20040;-75
2022/12/24 03:48:28;;;;;;;7.13;4.10;;;;;;;13.12;100.00;101186.84;2092490;28;20056;-75
2022/12/24 03:49:50;;;;;;;7.38;4.35;;;;;;;13.11;100.00;101190.34;2090598;28;20524;-75
2022/12/24 03:51:17;;;;;;;6.60;3.80;;;;;;;13.11;100.00;101199.19;2091876;28;20056;-75
2022/12/24 03:52:39;;;;;;;7.90;4.10;;;;;;;13.17;100.00;101195.75;2096038;28;20138;-75
2022/12/24 03:54:02;;;;;;;6.78;3.90;;;;;;;13.25;100.00;101201.16;2103322;28;20062;-75
2022/12/24 03:55:24;;;;;;;7.47;4.18;;;;;;;13.28;100.00;101194.09;2111108;28;20047;-76
2022/12/24 03:56:46;;;;;;;6.65;3.90;;;;;;;13.31;100.00;101199.47;2105141;28;20044;-75
2022/12/24 03:58:07;;;;;;;6.53;4.20;;;;;;;13.36;100.00;101199.50;2097589;28;20063;-76
2022/12/24 03:59:30;;;;;;;6.90;4.05;;;;;;;13.37;100.00;101188.91;2099811;28;20101;-75
2022/12/24 04:00:52;;;;;;;6.45;4.32;;;;;;;13.41;100.00;101200.44;2102624;28;20055;-76
2022/12/24 04:02:15;;;;;;;7.18;4.43;;;;;;;13.42;100.00;101195.16;2102747;28;20134;-75
2022/12/24 04:03:37;;;;;;;7.88;5.13;;;;;;;13.43;100.00;101196.06;2094867;28;20520;-75
2022/12/24 04:04:59;;;;;;;9.88;6.85;;;;;;;13.41;100.00;101196.03;2092946;28;20076;-75
2022/12/24 04:06:21;;;;;;;14.85;9.95;;;;;;;13.41;100.00;101201.34;2100032;28;20052;-75
2022/12/24 04:07:44;;;;;;;10.30;6.50;;;;;;;13.40;100.00;101198.66;2103213;28;20051;-76
2022/12/24 04:09:05;;;;;;;;;;;;;;;13.36;100.00;101204.81;2103475;28;20040;-76
2022/12/24 04:10:27;;;;;;;9.50;4.95;;;;;;;13.38;100.00;101197.78;2103450;28;20783;-75
2022/12/24 04:11:49;;;;;;;11.30;6.50;;;;;;;13.38;100.00;101200.44;2101852;28;20048;-75
2022/12/24 04:13:10;;;;;;;10.82;7.45;;;;;;;13.37;100.00;101196.88;2102170;28;20044;-75
2022/12/24 04:14:33;;;;;;;13.38;10.05;;;;;;;13.38;100.00;101211.03;2086583;28;20103;-74
2022/12/24 04:15:58;;;;;;;11.38;9.07;;;;;;;13.39;100.00;101205.72;2084438;28;20060;-75
2022/12/24 04:17:22;;;;;;;11.32;8.38;;;;;;;13.41;100.00;101198.69;2094429;28;20052;-75
2022/12/24 04:18:43;;;;;;;9.68;6.22;;;;;;;13.44;100.00;101200.50;2100490;28;20052;-75
2022/12/24 04:20:07;;;;;;;8.43;5.55;;;;;;;13.47;100.00;101204.03;2093942;28;20044;-75
2022/12/24 04:21:29;;;;;;;9.23;7.45;;;;;;;13.52;100.00;101206.78;2093780;28;20049;-74
2022/12/24 04:22:52;;;;;;;12.50;10.00;;;;;;;13.53;100.00;101209.41;2094513;28;20038;-74
2022/12/24 04:24:14;;;;;;;10.32;8.00;;;;;;;13.51;100.00;101203.22;2102671;28;20055;-75
2022/12/24 04:25:36;;;;;;;9.30;5.72;;;;;;;13.49;100.00;101204.06;2088708;28;20053;-75
2022/12/24 04:26:59;;;;;;;8.45;5.95;;;;;;;13.48;100.00;101202.28;2100082;28;20060;-76
2022/12/24 04:28:20;;;;;;;7.68;5.00;;;;;;;13.46;100.00;101210.22;2103012;28;20051;-75
2022/12/24 04:29:43;;;;;;;8.63;5.05;;;;;;;13.44;100.00;101205.78;2094141;28;20083;-74
2022/12/24 04:31:09;;;;;;;7.90;5.70;;;;;;;13.44;100.00;101206.69;2109038;28;20044;-76
2022/12/24 04:32:33;;;;;;;9.70;6.00;;;;;;;13.45;100.00;101203.16;2097063;28;20040;-75
2022/12/24 04:33:55;;;;;;;8.68;5.55;;;;;;;13.45;100.00;101211.13;2103087;28;20412;-75
2022/12/24 04:35:17;;;;;;;7.47;5.60;;;;;;;13.43;100.00;101209.31;2105851;28;20056;-75
2022/12/24 04:36:39;;;;;;;10.20;5.97;;;;;;;13.41;100.00;101219.00;2102713;28;20135;-75
2022/12/24 04:38:02;;;;;;;7.22;5.03;;;;;;;13.41;100.00;101219.91;2095101;28;20115;-76
2022/12/24 04:39:24;;;;;;;7.40;4.78;;;;;;;13.41;100.00;101221.66;2088973;28;20421;-75
2022/12/24 04:40:45;;;;;;;7.32;5.00;;;;;;;13.41;100.00;101217.25;2085942;28;20098;-76
2022/12/24 04:42:09;;;;;;;6.88;4.60;;;;;;;13.43;100.00;101218.16;2099800;28;20051;-76
2022/12/24 04:43:30;;;;;;;7.60;4.88;;;;;;;13.46;100.00;101215.53;2097228;28;20067;-75
2022/12/24 04:44:53;;;;;;;9.43;7.80;;;;;;;13.47;100.00;101222.63;2102781;28;20067;-76
2022/12/24 04:46:17;;;;;;;10.02;6.22;;;;;;;13.49;100.00;101230.59;2089038;28;20052;-75
2022/12/24 04:47:41;;;;;;;8.13;5.43;;;;;;;13.48;100.00;101224.41;2092659;28;20064;-76
2022/12/24 04:49:03;;;;;;;10.27;5.93;;;;;;;13.48;100.00;101224.41;2094504;28;20056;-76
2022/12/24 04:50:25;;;;;;;7.25;5.53;;;;;;;13.50;100.00;101233.28;2086923;28;20053;-76
2022/12/24 04:51:47;;;;;;;6.68;4.20;;;;;;;13.52;100.00;101230.66;2095531;28;20047;-76
2022/12/24 04:53:09;;;;;;;6.18;4.38;;;;;;;13.53;100.00;101227.97;2111145;28;20056;-76
2022/12/24 04:54:30;;;;;;;8.50;5.70;;;;;;;13.55;100.00;101233.31;2094423;28;20040;-76
2022/12/24 04:55:53;;;;;;;8.63;5.22;;;;;;;13.56;100.00;101237.75;2099627;28;20463;-75
2022/12/24 04:57:15;;;;;;;7.10;4.80;;;;;;;13.56;100.00;101230.69;2102027;28;20055;-75
2022/12/24 04:58:36;;;;;;;7.75;5.22;;;;;;;13.59;100.00;101234.25;2101993;28;20142;-76
2022/12/24 04:59:59;;;;;;;6.70;4.75;;;;;;;13.57;100.00;101228.94;2101862;28;20053;-76
2022/12/24 05:01:22;;;;;;;7.30;4.85;;;;;;;13.57;100.00;101226.28;2094019;28;20045;-75
2022/12/24 05:02:46;;;;;;;8.25;4.82;;;;;;;13.54;100.00;101235.06;2092599;28;20052;-75
2022/12/24 05:04:10;;;;;;;7.10;4.22;;;;;;;13.54;100.00;101232.41;2100396;28;20044;-75
2022/12/24 05:05:31;;;;;;;6.32;4.00;;;;;;;13.53;100.00;101238.59;2105214;28;20060;-75
2022/12/24 05:06:54;;;;;;;6.30;3.97;;;;;;;13.53;100.00;101235.06;2103036;28;20048;-75
2022/12/24 05:08:15;;;;;;;5.95;3.70;;;;;;;13.53;100.00;101235.94;2101591;28;21733;-75
2022/12/24 05:09:37;;;;;;;6.97;3.97;;;;;;;13.54;100.00;101237.72;2102276;28;20044;-75
2022/12/24 05:11:00;;;;;;;7.28;4.15;;;;;;;13.54;100.00;101235.06;2103800;28;20044;-76
2022/12/24 05:12:22;;;;;;;6.90;4.25;;;;;;;13.55;100.00;101239.50;2100810;28;20052;-76
2022/12/24 05:13:46;;;;;;;7.78;4.50;;;;;;;13.56;100.00;101236.00;2094242;28;20052;-75
2022/12/24 05:15:09;;;;;;;8.05;4.60;;;;;;;13.57;100.00;101243.09;2100079;28;20571;-75
2022/12/24 05:16:30;;;;;;;8.40;4.75;;;;;;;13.57;100.00;101235.13;2102212;28;20040;-75
2022/12/24 05:17:54;;;;;;;8.73;4.72;;;;;;;13.57;100.00;101235.13;2094180;28;20051;-76
2022/12/24 05:19:15;;;;;;;8.48;5.03;;;;;;;13.56;100.00;101236.00;2100353;28;20400;-75
2022/12/24 05:20:38;;;;;;;8.68;4.82;;;;;;;13.57;100.00;101239.53;2102195;28;20127;-75
2022/12/24 05:26:59;;;;;;;7.75;4.97;;;;;;;13.56;100.00;101237.75;2105533;28;20408;-76
2022/12/24 05:28:21;;;;;;;7.72;4.80;;;;;;;13.57;100.00;101232.47;2095578;28;20036;-76
2022/12/24 05:29:43;;;;;;;7.95;4.00;;;;;;;13.57;100.00;101240.44;2090852;28;20044;-75
2022/12/24 05:31:04;;;;;;;8.20;4.95;;;;;;;13.60;100.00;101238.66;2106726;28;20517;-75
2022/12/24 05:32:27;;;;;;;8.30;4.25;;;;;;;13.60;100.00;101238.66;2105346;28;20135;-75
2022/12/24 05:33:50;;;;;;;8.45;4.45;;;;;;;13.61;100.00;101245.75;2102212;28;20052;-75
2022/12/24 05:35:12;;;;;;;8.60;5.85;;;;;;;13.61;100.00;101245.75;2094022;28;20118;-75
2022/12/24 05:36:34;;;;;;;7.90;4.93;;;;;;;13.60;100.00;101243.97;2092828;28;20052;-75
2022/12/24 05:37:58;;;;;;;8.55;5.57;;;;;;;13.60;100.00;101243.97;2093275;28;20044;-75
2022/12/24 05:39:21;;;;;;;7.63;4.50;;;;;;;13.58;100.00;101251.94;2101846;28;20564;-75
2022/12/24 05:40:42;;;;;;;9.60;5.22;;;;;;;13.56;100.00;101251.00;2100508;28;20040;-75
2022/12/24 05:42:05;;;;;;;8.63;5.35;;;;;;;13.54;100.00;101251.00;2089641;28;20036;-75
2022/12/24 05:43:26;;;;;;;9.20;5.40;;;;;;;13.54;100.00;101250.09;2091080;28;20496;-75
2022/12/24 05:44:48;;;;;;;8.82;5.05;;;;;;;13.53;100.00;101249.19;2093416;28;20226;-76
2022/12/24 05:46:12;;;;;;;7.57;4.90;;;;;;;13.54;100.00;101253.66;2100014;28;20040;-75
2022/12/24 05:47:34;;;;;;;8.90;5.60;;;;;;;13.52;100.00;101251.88;2101440;28;20608;-76
2022/12/24 05:48:58;;;;;;;11.43;5.85;;;;;;;13.53;100.00;101249.19;2101812;28;20106;-76
2022/12/24 05:50:19;;;;;;;9.90;6.25;;;;;;;13.54;100.00;101258.06;2102292;28;20047;-75
2022/12/24 05:51:42;;;;;;;10.35;7.18;;;;;;;13.55;100.00;101251.88;2101314;28;20508;-75
2022/12/24 05:53:03;;;;;;;8.95;6.28;;;;;;;13.54;100.00;101255.41;2108485;28;20040;-76
2022/12/24 05:54:25;;;;;;;9.18;6.22;;;;;;;13.53;100.00;101261.56;2103996;28;20044;-76
2022/12/24 05:55:47;;;;;;;8.80;5.80;;;;;;;13.55;100.00;101259.84;2101351;28;20051;-76
2022/12/24 05:57:10;;;;;;;8.02;5.07;;;;;;;13.56;100.00;101272.22;2100899;28;20093;-75
2022/12/24 05:58:31;;;;;;;9.70;5.57;;;;;;;13.60;100.00;101270.50;2093825;28;20063;-76
2022/12/24 05:59:53;;;;;;;10.10;5.15;;;;;;;13.62;100.00;101272.31;2101963;28;20082;-75
2022/12/24 06:01:15;;;;;;;7.70;5.15;;;;;;;13.67;100.00;101265.28;2105847;28;20040;-75
2022/12/24 06:02:37;;;;;;;9.63;6.20;;;;;;;13.67;100.00;101267.03;2103805;28;20048;-75
2022/12/24 06:04:02;;;;;;;8.68;6.03;;;;;;;13.69;100.00;101271.50;2101831;28;20498;-75
2022/12/24 06:05:23;;;;;;;8.77;5.55;;;;;;;13.70;100.00;101273.28;2104075;28;20131;-76
2022/12/24 06:06:45;;;;;;;7.93;5.47;;;;;;;13.71;100.00;101275.06;2096390;28;20196;-75
2022/12/24 06:08:06;;;;;;;12.63;5.97;;;;;;;13.72;100.00;101271.53;2097912;28;20044;-75
2022/12/24 06:09:29;;;;;;;11.35;6.07;;;;;;;13.72;100.00;101276.81;2101189;28;20040;-75
2022/12/24 06:10:54;;;;;;;7.97;5.10;;;;;;;13.73;100.00;101277.72;2101985;28;20056;-75
2022/12/24 06:12:17;;;;;;;8.88;5.50;;;;;;;13.73;100.00;101283.03;2102997;28;20047;-75
2022/12/24 06:13:41;;;;;;;8.45;6.00;;;;;;;13.74;100.00;101285.69;2101900;28;20112;-75
2022/12/24 06:15:03;;;;;;;8.57;5.30;;;;;;;13.76;100.00;101289.28;2098882;28;20052;-76
2022/12/24 06:16:26;;;;;;;7.60;4.90;;;;;;;13.79;100.00;101293.69;2101299;28;20089;-75
2022/12/24 06:17:48;;;;;;;8.27;5.95;;;;;;;13.79;100.00;101291.03;2101530;28;20531;-75
2022/12/24 06:19:11;;;;;;;9.52;6.05;;;;;;;13.79;100.00;101289.28;2101168;28;20809;-74
2022/12/24 06:20:33;;;;;;;10.00;6.80;;;;;;;13.80;100.00;101293.72;2104238;28;20139;-75
2022/12/24 06:21:56;;;;;;;10.00;6.70;;;;;;;13.85;100.00;101289.34;2101781;28;20553;-76
2022/12/24 06:23:18;;;;;;;11.43;7.38;;;;;;;13.87;100.00;101292.91;2088057;28;20100;-75
2022/12/24 06:24:40;;;;;;;13.70;10.50;;;;;;;13.90;100.00;101300.03;2091309;28;20135;-75
2022/12/24 06:26:02;;;;;;;17.65;11.52;;;;;;;13.92;100.00;101300.91;2094031;28;20060;-75
2022/12/24 06:27:24;;;;;;;23.88;16.10;;;;;;;13.90;100.00;101295.63;2093828;28;20542;-76
2022/12/24 06:28:47;;;;;;;24.48;16.42;;;;;;;13.90;100.00;101297.38;2096788;28;20040;-76
2022/12/24 06:30:10;;;;;;;14.07;8.27;;;;;;;13.91;100.00;101307.13;2094114;28;20078;-75
2022/12/24 06:31:32;;;;;;;18.05;10.73;;;;;;;13.93;100.00;101302.72;2099475;28;20040;-78
2022/12/24 06:32:53;;;;;;;18.88;12.88;;;;;;;13.95;100.00;101309.81;2102943;28;20508;-75
2022/12/24 06:34:17;;;;;;;11.75;7.68;;;;;;;13.98;100.00;101302.78;2101614;28;20048;-76